Time;durP1;ratioP1;P1;durP2;ratioP2;P2;SDS_P1;SDS_P2;PMS_P1;PMS_P2;Temp;Humidity;BMP_temperature;BMP_pressure;BME280_temperature;BME280_humidity;BME280_pressure;Samples;Min_cycle;Max_cycle;Signal;HPM_P1;HPM_P2
2022/09/30 00:01:50;;;;;;;;;;;;;;;21.00;28.96;97464.50;4999019;28;775;-81
2022/09/30 00:04:16;;;;;;;;;;;;;;;20.81;29.08;97477.63;5015263;28;918;-79
2022/09/30 00:06:41;;;;;;;;;;;;;;;20.72;29.47;97464.16;4983501;28;1911;-81
2022/09/30 00:09:08;;;;;;;;;;;;;;;21.07;28.81;97467.09;4983396;28;986;-81
2022/09/30 00:11:36;;;;;;;;;;;;;;;21.25;28.33;97466.50;4983382;28;838;-81
2022/09/30 00:14:02;;;;;;;;;;;;;;;20.99;28.84;97474.25;4983680;28;1338;-81
2022/09/30 00:16:31;;;;;;;;;;;;;;;20.77;29.22;97477.72;4982931;28;907;-81
2022/09/30 00:22:32;;;;;;;;;;;;;;;20.68;29.26;97477.63;4998987;28;961;-81
2022/09/30 00:24:57;;;;;;;;;;;;;;;20.97;28.97;97485.19;4999175;28;751;-81
2022/09/30 00:27:23;;;;;;;;;;;;;;;21.11;28.57;97479.09;4999552;28;1906;-81
2022/09/30 00:29:48;;;;;;;;;;;;;;;21.30;28.30;97482.94;4982799;28;771;-81
2022/09/30 00:32:14;;;;;;;;;;;;;;;20.81;29.18;97495.38;4998753;28;1217;-81
2022/09/30 00:34:39;;;;;;;;;;;;;;;20.91;29.05;97492.66;4999240;28;866;-81
2022/09/30 00:37:05;;;;;;;;;;;;;;;20.83;29.28;97496.94;4999487;28;923;-81
2022/09/30 00:39:30;;;;;;;;;;;;;;;20.77;29.22;97493.91;5016303;28;774;-81
2022/09/30 00:41:57;;;;;;;;;;;;;;;20.79;29.04;97492.22;5000094;28;763;-81
2022/09/30 00:44:42;;;;;;;;;;;;;;;20.76;29.29;97493.09;4999815;28;862;-81
2022/09/30 00:47:27;;;;;;;;;;;;;;;21.11;28.63;97495.25;5001064;28;1910;-81
2022/09/30 00:49:52;;;;;;;;;;;;;;;21.06;28.58;97493.78;5000923;28;755;-81
2022/09/30 00:52:18;;;;;;;;;;;;;;;20.96;28.91;97494.94;5015907;28;877;-81
2022/09/30 00:54:44;;;;;;;;;;;;;;;21.03;28.88;97495.47;5015981;28;704;-81
2022/09/30 00:57:09;;;;;;;;;;;;;;;20.80;28.90;97488.13;5016073;28;854;-81
2022/09/30 00:59:42;;;;;;;;;;;;;;;20.72;29.13;97497.28;4999888;28;764;-81
2022/09/30 01:02:09;;;;;;;;;;;;;;;20.99;28.74;97499.69;4999402;28;823;-80
2022/09/30 01:04:34;;;;;;;;;;;;;;;21.43;27.95;97494.22;5015916;28;893;-81
2022/09/30 01:07:03;;;;;;;;;;;;;;;21.61;27.60;97504.94;5000720;28;1914;-81
2022/09/30 01:09:30;;;;;;;;;;;;;;;21.57;27.88;97505.06;5015609;28;740;-81
2022/09/30 01:11:56;;;;;;;;;;;;;;;21.16;28.53;97503.97;5015562;28;829;-81
2022/09/30 01:14:22;;;;;;;;;;;;;;;21.01;28.59;97502.84;5016242;28;1291;-81
2022/09/30 01:17:00;;;;;;;;;;;;;;;20.87;28.92;97504.09;5014698;28;774;-81
2022/09/30 01:19:30;;;;;;;;;;;;;;;20.73;29.12;97501.72;4998665;28;1199;-81
2022/09/30 01:21:55;;;;;;;;;;;;;;;20.83;28.90;97505.44;5015949;28;822;-81
2022/09/30 01:24:24;;;;;;;;;;;;;;;20.83;29.12;97503.44;5000275;28;755;-81
2022/09/30 01:26:49;;;;;;;;;;;;;;;20.80;28.97;97510.75;4999850;28;1968;-81
2022/09/30 01:29:33;;;;;;;;;;;;;;;20.82;28.89;97501.81;4999019;28;1236;-81
2022/09/30 01:32:03;;;;;;;;;;;;;;;21.17;28.23;97488.56;5000102;28;1145;-81
2022/09/30 01:34:47;;;;;;;;;;;;;;;21.26;28.26;97490.72;5015237;28;747;-81
2022/09/30 01:37:12;;;;;;;;;;;;;;;21.13;28.20;97496.38;5015522;28;1355;-81
2022/09/30 01:39:41;;;;;;;;;;;;;;;20.87;28.70;97497.63;5000129;28;846;-81
2022/09/30 01:42:09;;;;;;;;;;;;;;;20.90;28.71;97508.06;5000305;28;794;-81
2022/09/30 01:44:53;;;;;;;;;;;;;;;20.83;28.74;97502.59;5015073;28;802;-81
2022/09/30 01:47:25;;;;;;;;;;;;;;;20.80;28.83;97507.94;5014789;28;1971;-81
2022/09/30 01:50:26;;;;;;;;;;;;;;;20.75;29.06;97510.53;4998869;28;1183;-81
2022/09/30 01:52:55;;;;;;;;;;;;;;;21.03;28.64;97517.31;4943076;29;1101;-81
2022/09/30 01:55:22;;;;;;;;;;;;;;;21.17;28.47;97518.91;4942714;29;1023;-81
2022/09/30 01:57:50;;;;;;;;;;;;;;;20.72;29.10;97519.91;4942788;29;1121;-81
2022/09/30 02:00:16;;;;;;;;;;;;;;;20.57;29.03;97525.19;4942614;29;1236;-81
2022/09/30 02:02:52;;;;;;;;;;;;;;;20.58;29.20;97514.72;4958408;28;945;-81
2022/09/30 02:05:20;;;;;;;;;;;;;;;20.37;29.51;97538.72;4942520;29;907;-81
2022/09/30 02:07:48;;;;;;;;;;;;;;;20.61;28.81;97531.53;4958696;29;1976;-81
2022/09/30 02:10:37;;;;;;;;;;;;;;;20.67;29.22;97532.56;4942490;29;956;-81
2022/09/30 02:13:04;;;;;;;;;;;;;;;20.98;28.54;97532.81;4901602;29;1016;-81
2022/09/30 02:15:33;;;;;;;;;;;;;;;21.45;27.90;97525.69;4885612;29;1076;-81
2022/09/30 02:18:00;;;;;;;;;;;;;;;21.14;28.01;97529.09;4885757;29;1084;-81
2022/09/30 02:20:26;;;;;;;;;;;;;;;20.88;28.65;97524.66;4870311;29;1329;-81
2022/09/30 02:22:55;;;;;;;;;;;;;;;20.75;28.75;97531.13;4885588;29;1169;-81
2022/09/30 02:25:28;;;;;;;;;;;;;;;20.88;28.71;97538.81;4882336;29;1053;-81
2022/09/30 02:27:57;;;;;;;;;;;;;;;20.93;28.68;97532.59;4917537;29;1899;-81
2022/09/30 02:30:22;;;;;;;;;;;;;;;21.06;28.55;97547.53;4919535;29;1067;-81
2022/09/30 02:32:49;;;;;;;;;;;;;;;21.19;28.22;97554.00;4920142;29;792;-81
2022/09/30 02:35:25;;;;;;;;;;;;;;;20.80;28.64;97561.66;4910306;29;982;-81
2022/09/30 02:37:52;;;;;;;;;;;;;;;20.87;28.71;97563.47;4900783;29;929;-81
2022/09/30 02:43:53;;;;;;;;;;;;;;;20.96;28.82;97562.81;4901121;29;937;-81
2022/09/30 02:46:25;;;;;;;;;;;;;;;21.13;28.19;97561.44;4900827;29;1983;-81
2022/09/30 02:48:56;;;;;;;;;;;;;;;21.17;28.25;97567.78;4901025;29;934;-81
2022/09/30 02:54:56;;;;;;;;;;;;;;;20.97;28.60;97561.56;4957959;29;664;-81
2022/09/30 02:57:34;;;;;;;;;;;;;;;20.97;28.61;97564.38;4995376;28;909;-81
2022/09/30 03:00:00;;;;;;;;;;;;;;;20.69;28.77;97555.53;4997612;28;1506;-81
2022/09/30 03:02:25;;;;;;;;;;;;;;;20.76;28.81;97563.00;5013973;28;716;-81
2022/09/30 03:04:50;;;;;;;;;;;;;;;21.07;28.24;97558.41;4998499;28;688;-81
2022/09/30 03:07:16;;;;;;;;;;;;;;;21.22;27.86;97564.41;4998598;28;1946;-81
2022/09/30 03:09:41;;;;;;;;;;;;;;;21.10;28.35;97567.25;5013607;28;743;-82
2022/09/30 03:15:45;;;;;;;;;;;;;;;20.58;29.53;97583.34;4998551;28;648;-82
2022/09/30 03:18:21;;;;;;;;;;;;;;;20.83;28.93;97576.13;5013399;28;791;-81
2022/09/30 03:20:46;;;;;;;;;;;;;;;21.12;28.52;97576.84;4998114;28;1107;-81
2022/09/30 03:23:15;;;;;;;;;;;;;;;21.28;28.29;97573.09;4997938;28;878;-81
2022/09/30 03:25:51;;;;;;;;;;;;;;;21.03;29.05;97571.06;4998346;28;841;-81
2022/09/30 03:28:17;;;;;;;;;;;;;;;21.20;28.79;97575.38;5013262;28;1910;-81
2022/09/30 03:31:11;;;;;;;;;;;;;;;21.06;29.01;97578.66;5013070;28;1153;-81
2022/09/30 03:33:37;;;;;;;;;;;;;;;21.03;28.83;97580.34;4957338;29;956;-81
2022/09/30 03:36:12;;;;;;;;;;;;;;;21.19;28.77;97587.94;4956956;28;1001;-81
2022/09/30 03:38:40;;;;;;;;;;;;;;;21.39;28.34;97589.78;4940944;29;959;-81
2022/09/30 03:41:06;;;;;;;;;;;;;;;21.12;28.77;97588.16;4940573;29;721;-81
2022/09/30 03:43:32;;;;;;;;;;;;;;;20.89;29.31;97596.97;4956440;28;1005;-81
2022/09/30 03:46:01;;;;;;;;;;;;;;;20.93;29.23;97594.81;4925190;29;1152;-81
2022/09/30 03:48:26;;;;;;;;;;;;;;;20.95;29.47;97595.97;4925071;29;708;-81
2022/09/30 03:50:52;;;;;;;;;;;;;;;20.68;29.60;97582.22;4957181;29;897;-81
2022/09/30 03:53:17;;;;;;;;;;;;;;;20.67;29.56;97603.22;4956681;29;911;-81
2022/09/30 03:55:44;;;;;;;;;;;;;;;20.75;29.34;97598.19;4940677;29;1080;-81
2022/09/30 03:58:09;;;;;;;;;;;;;;;20.77;29.67;97604.97;4941068;29;1010;-81
2022/09/30 04:00:35;;;;;;;;;;;;;;;20.97;29.19;97598.31;4957098;29;843;-81
2022/09/30 04:03:01;;;;;;;;;;;;;;;21.18;28.90;97603.31;4941074;29;895;-81
2022/09/30 04:05:26;;;;;;;;;;;;;;;21.07;28.94;97597.22;4956686;29;902;-81
2022/09/30 04:07:52;;;;;;;;;;;;;;;21.22;28.81;97600.38;4940629;29;1911;-81
2022/09/30 04:10:17;;;;;;;;;;;;;;;21.14;29.24;97594.19;4982629;28;1079;-82
2022/09/30 04:12:43;;;;;;;;;;;;;;;21.02;29.22;97600.59;4997118;28;1272;-82
2022/09/30 04:15:08;;;;;;;;;;;;;;;20.76;29.64;97606.22;4997915;28;791;-81
2022/09/30 04:17:34;;;;;;;;;;;;;;;20.90;29.39;97601.38;4979350;28;921;-81
2022/09/30 04:19:59;;;;;;;;;;;;;;;21.27;28.94;97611.94;4996201;28;819;-81
2022/09/30 04:22:25;;;;;;;;;;;;;;;21.41;28.94;97609.94;4996366;28;963;-81
2022/09/30 04:24:50;;;;;;;;;;;;;;;21.08;29.44;97602.41;4997465;28;724;-82
2022/09/30 04:27:16;;;;;;;;;;;;;;;20.89;29.65;97608.28;4997505;28;1918;-82
2022/09/30 04:29:41;;;;;;;;;;;;;;;20.91;29.85;97620.72;4996482;28;870;-82
2022/09/30 04:35:23;;;;;;;;;;;;;;;20.64;29.88;97620.31;4997208;28;850;-81
2022/09/30 04:37:49;;;;;;;;;;;;;;;20.72;29.89;97625.31;5012774;28;1225;-81
2022/09/30 04:40:14;;;;;;;;;;;;;;;20.86;29.89;97626.13;4997488;28;767;-82
2022/09/30 04:42:41;;;;;;;;;;;;;;;21.19;29.51;97624.72;5011519;28;923;-82
2022/09/30 04:45:08;;;;;;;;;;;;;;;21.15;29.48;97631.75;4996329;28;854;-81
2022/09/30 04:47:33;;;;;;;;;;;;;;;20.95;29.54;97640.41;4996208;28;1979;-82
2022/09/30 04:49:59;;;;;;;;;;;;;;;21.00;29.47;97645.53;4996996;28;889;-82
2022/09/30 04:52:24;;;;;;;;;;;;;;;21.01;29.54;97644.28;4999069;28;728;-81
2022/09/30 04:58:25;;;;;;;;;;;;;;;20.96;29.60;97658.97;5000721;28;784;-81
2022/09/30 05:00:51;;;;;;;;;;;;;;;20.91;29.78;97656.69;5000754;28;798;-81
2022/09/30 05:03:17;;;;;;;;;;;;;;;20.95;29.52;97646.06;5000625;28;835;-81
2022/09/30 05:05:42;;;;;;;;;;;;;;;20.97;29.72;97652.06;5015781;28;852;-81
2022/09/30 05:08:08;;;;;;;;;;;;;;;21.21;29.44;97647.69;5015734;28;1910;-81
2022/09/30 05:10:33;;;;;;;;;;;;;;;21.13;29.33;97654.81;5000616;28;1115;-81
2022/09/30 05:12:59;;;;;;;;;;;;;;;21.07;29.54;97654.56;4998270;28;842;-81
2022/09/30 05:15:24;;;;;;;;;;;;;;;20.88;29.95;97657.56;5000499;28;755;-82
2022/09/30 05:17:50;;;;;;;;;;;;;;;20.94;29.75;97650.16;5015315;28;691;-81
2022/09/30 05:20:16;;;;;;;;;;;;;;;20.78;30.02;97648.19;5000476;28;699;-81
2022/09/30 05:22:42;;;;;;;;;;;;;;;20.70;30.25;97658.91;5000610;28;728;-81
2022/09/30 05:25:07;;;;;;;;;;;;;;;20.79;30.20;97656.22;4999210;28;767;-81
2022/09/30 05:27:33;;;;;;;;;;;;;;;20.86;30.09;97665.72;5000499;28;1906;-81
2022/09/30 05:29:58;;;;;;;;;;;;;;;21.18;29.94;97665.56;5000472;28;735;-81
2022/09/30 05:32:24;;;;;;;;;;;;;;;21.22;29.54;97669.09;4998729;28;1050;-81
2022/09/30 05:34:49;;;;;;;;;;;;;;;21.05;29.97;97667.59;5000701;28;759;-81
2022/09/30 05:37:15;;;;;;;;;;;;;;;20.84;30.16;97671.84;5000510;28;750;-82
2022/09/30 05:39:41;;;;;;;;;;;;;;;20.72;30.62;97655.59;5015009;28;795;-81
2022/09/30 05:42:06;;;;;;;;;;;;;;;21.10;30.06;97663.41;5015237;28;771;-81
2022/09/30 05:44:32;;;;;;;;;;;;;;;21.04;30.07;97657.53;5015125;28;802;-81
2022/09/30 05:46:58;;;;;;;;;;;;;;;21.13;29.94;97663.28;5015698;28;1926;-82
2022/09/30 05:49:24;;;;;;;;;;;;;;;21.06;30.07;97663.50;5017154;28;930;-81
2022/09/30 05:51:50;;;;;;;;;;;;;;;21.18;29.96;97665.56;4984902;28;931;-81
2022/09/30 05:54:15;;;;;;;;;;;;;;;21.02;30.18;97679.78;4984707;28;1198;-81
2022/09/30 05:56:41;;;;;;;;;;;;;;;20.81;30.27;97678.38;5017380;28;716;-81
2022/09/30 05:59:06;;;;;;;;;;;;;;;20.72;30.41;97670.53;4984761;28;907;-81
2022/09/30 06:01:32;;;;;;;;;;;;;;;21.30;29.69;97673.31;5000575;28;699;-81
2022/09/30 06:03:57;;;;;;;;;;;;;;;21.21;29.86;97681.66;5000372;28;891;-81
2022/09/30 06:06:23;;;;;;;;;;;;;;;21.05;30.06;97691.00;5000693;28;1988;-81
2022/09/30 06:08:48;;;;;;;;;;;;;;;21.22;29.93;97685.28;5000531;28;787;-81
2022/09/30 06:11:14;;;;;;;;;;;;;;;21.03;30.09;97689.88;5016861;28;743;-81
2022/09/30 06:13:40;;;;;;;;;;;;;;;20.93;30.33;97688.13;5000659;28;736;-81
2022/09/30 06:19:40;;;;;;;;;;;;;;;20.91;30.54;97696.28;5012756;28;749;-81
2022/09/30 06:22:05;;;;;;;;;;;;;;;20.86;30.48;97688.34;4999306;28;759;-81
2022/09/30 06:24:31;;;;;;;;;;;;;;;20.88;30.55;97697.16;4999046;28;787;-81
2022/09/30 06:26:56;;;;;;;;;;;;;;;20.97;30.21;97706.59;4999093;28;1918;-81
2022/09/30 06:29:21;;;;;;;;;;;;;;;21.01;30.13;97712.16;4999422;28;731;-81
2022/09/30 06:31:47;;;;;;;;;;;;;;;20.98;30.41;97715.88;4999436;28;1328;-81
2022/09/30 06:34:12;;;;;;;;;;;;;;;20.79;30.68;97723.28;5014088;28;838;-81
2022/09/30 06:36:38;;;;;;;;;;;;;;;21.28;30.00;97725.91;4997961;28;831;-81
2022/09/30 06:39:03;;;;;;;;;;;;;;;21.26;29.92;97726.38;5013331;28;937;-81
2022/09/30 06:41:29;;;;;;;;;;;;;;;20.93;30.40;97722.06;5024387;28;1292;-81
2022/09/30 06:43:54;;;;;;;;;;;;;;;20.92;30.55;97723.31;5033968;28;763;-81
2022/09/30 06:46:22;;;;;;;;;;;;;;;21.19;30.29;97735.09;5030215;28;1902;-81
2022/09/30 06:48:48;;;;;;;;;;;;;;;21.00;30.43;97738.88;5023975;28;1257;-81
2022/09/30 06:51:14;;;;;;;;;;;;;;;20.90;30.65;97751.28;5007978;28;1249;-81
2022/09/30 06:53:39;;;;;;;;;;;;;;;21.03;30.42;97752.88;5024425;28;1281;-81
2022/09/30 06:56:05;;;;;;;;;;;;;;;21.17;30.39;97756.56;5017159;28;1208;-81
2022/09/30 06:58:30;;;;;;;;;;;;;;;21.09;30.15;97764.47;5015838;28;1205;-81
2022/09/30 07:01:02;;;;;;;;;;;;;;;21.03;30.43;97760.56;5024222;28;1323;-81
2022/09/30 07:03:29;;;;;;;;;;;;;;;20.91;30.41;97761.34;5015267;28;841;-81
2022/09/30 07:05:58;;;;;;;;;;;;;;;21.00;30.32;97772.81;4999612;28;942;-81
2022/09/30 07:08:24;;;;;;;;;;;;;;;20.98;30.26;97780.94;4999148;28;1910;-81
2022/09/30 07:10:50;;;;;;;;;;;;;;;21.23;30.13;97781.03;4999040;28;773;-81
2022/09/30 07:13:16;;;;;;;;;;;;;;;21.19;30.35;97786.00;4982671;28;1206;-81
2022/09/30 07:15:41;;;;;;;;;;;;;;;20.81;30.74;97778.13;4998432;28;644;-81
2022/09/30 07:18:07;;;;;;;;;;;;;;;20.90;30.60;97779.56;4999104;28;806;-81
2022/09/30 07:20:32;;;;;;;;;;;;;;;20.90;30.83;97782.38;5015688;28;901;-81
2022/09/30 07:22:58;;;;;;;;;;;;;;;21.25;29.99;97781.38;4999102;28;906;-81
2022/09/30 07:25:24;;;;;;;;;;;;;;;21.00;30.45;97778.47;5015683;28;842;-80
2022/09/30 07:27:49;;;;;;;;;;;;;;;20.98;30.39;97781.72;4999383;28;1903;-80
2022/09/30 07:30:15;;;;;;;;;;;;;;;20.77;30.74;97773.81;4998731;28;820;-80
2022/09/30 07:32:40;;;;;;;;;;;;;;;21.04;30.57;97773.50;4998642;28;1258;-80
2022/09/30 07:35:06;;;;;;;;;;;;;;;20.73;30.85;97762.63;5017005;28;809;-80
2022/09/30 07:37:34;;;;;;;;;;;;;;;20.80;30.79;97775.78;5015990;28;914;-81
2022/09/30 07:40:00;;;;;;;;;;;;;;;20.91;30.42;97773.44;5016101;28;774;-80
2022/09/30 07:42:26;;;;;;;;;;;;;;;20.98;30.47;97776.06;4999735;28;847;-80
2022/09/30 07:44:51;;;;;;;;;;;;;;;21.32;30.30;97769.09;5017139;28;787;-80
2022/09/30 07:47:17;;;;;;;;;;;;;;;21.40;29.74;97778.16;5018536;28;1910;-80
2022/09/30 07:49:43;;;;;;;;;;;;;;;20.99;30.86;97776.88;5016648;28;795;-80
2022/09/30 07:52:09;;;;;;;;;;;;;;;20.92;30.94;97775.03;5015936;28;790;-80
2022/09/30 07:54:34;;;;;;;;;;;;;;;20.80;30.91;97776.56;4999875;28;779;-80
2022/09/30 07:57:00;;;;;;;;;;;;;;;20.90;30.87;97776.72;5017605;28;956;-80
2022/09/30 07:59:26;;;;;;;;;;;;;;;21.13;30.52;97776.47;5016451;28;779;-80
2022/09/30 08:01:52;;;;;;;;;;;;;;;21.07;30.44;97781.09;5016073;28;853;-80
2022/09/30 08:04:17;;;;;;;;;;;;;;;21.02;30.69;97781.63;5017659;28;735;-80
2022/09/30 08:06:47;;;;;;;;;;;;;;;20.95;30.73;97787.50;5015454;28;1910;-80
2022/09/30 08:09:13;;;;;;;;;;;;;;;21.06;30.56;97793.66;5016438;28;807;-80
2022/09/30 08:11:40;;;;;;;;;;;;;;;20.97;30.55;97791.44;5016014;28;723;-80
2022/09/30 08:17:40;;;;;;;;;;;;;;;20.79;31.01;97783.47;5016921;28;668;-80
2022/09/30 08:20:06;;;;;;;;;;;;;;;20.94;31.04;97791.56;5014877;28;1264;-80
2022/09/30 08:22:31;;;;;;;;;;;;;;;21.32;30.30;97784.03;5015065;28;946;-80
2022/09/30 08:24:57;;;;;;;;;;;;;;;21.11;30.54;97795.13;5014664;28;866;-80
2022/09/30 08:27:22;;;;;;;;;;;;;;;21.03;30.96;97795.31;5018092;28;1910;-80
2022/09/30 08:29:47;;;;;;;;;;;;;;;21.20;30.49;97795.28;5018692;28;962;-80
2022/09/30 08:32:13;;;;;;;;;;;;;;;21.01;31.10;97786.50;5002329;28;1183;-80
2022/09/30 08:34:38;;;;;;;;;;;;;;;21.10;30.73;97791.50;5002345;28;812;-81
2022/09/30 08:37:04;;;;;;;;;;;;;;;21.12;30.89;97786.19;5018619;28;885;-80
2022/09/30 08:39:29;;;;;;;;;;;;;;;20.89;31.20;97789.28;5018453;28;1028;-79
2022/09/30 08:42:07;;;;;;;;;;;;;;;20.89;31.26;97801.38;5018321;28;937;-80
2022/09/30 08:44:45;;;;;;;;;;;;;;;20.71;31.27;97807.50;5002150;28;1218;-80
2022/09/30 08:47:16;;;;;;;;;;;;;;;20.96;30.95;97814.53;5001953;28;1910;-80
2022/09/30 08:50:00;;;;;;;;;;;;;;;20.99;31.08;97813.66;5018480;28;1008;-80
2022/09/30 08:52:27;;;;;;;;;;;;;;;20.80;31.33;97827.47;5020425;28;841;-80
2022/09/30 08:54:53;;;;;;;;;;;;;;;20.80;31.27;97827.47;5019405;28;783;-80
2022/09/30 08:57:19;;;;;;;;;;;;;;;20.93;31.16;97818.22;5019282;28;886;-79
2022/09/30 08:59:47;;;;;;;;;;;;;;;20.87;31.10;97820.03;5019174;28;866;-79
2022/09/30 09:02:20;;;;;;;;;;;;;;;20.88;31.11;97819.59;5020896;28;841;-79
2022/09/30 09:04:46;;;;;;;;;;;;;;;20.88;31.37;97832.91;5018791;28;707;-79
2022/09/30 09:07:14;;;;;;;;;;;;;;;20.97;31.31;97830.25;5020133;28;1967;-79
2022/09/30 09:09:59;;;;;;;;;;;;;;;21.00;30.98;97833.00;5019686;28;1002;-79
2022/09/30 09:12:43;;;;;;;;;;;;;;;20.91;31.29;97844.16;5035225;28;861;-80
2022/09/30 09:15:10;;;;;;;;;;;;;;;21.14;31.40;97840.31;5019908;28;783;-80
2022/09/30 09:17:54;;;;;;;;;;;;;;;21.43;30.68;97833.88;5018858;28;771;-80
2022/09/30 09:20:21;;;;;;;;;;;;;;;20.94;31.70;97836.81;5019787;28;854;-80
2022/09/30 09:22:47;;;;;;;;;;;;;;;21.04;31.38;97838.56;5035111;28;727;-80
2022/09/30 09:25:13;;;;;;;;;;;;;;;21.08;31.16;97844.91;5035476;28;735;-80
2022/09/30 09:27:42;;;;;;;;;;;;;;;21.16;31.15;97837.81;5035078;28;1906;-80
2022/09/30 09:30:11;;;;;;;;;;;;;;;20.92;31.52;97840.06;5019879;28;766;-80
2022/09/30 09:32:36;;;;;;;;;;;;;;;20.87;31.66;97842.66;5034600;28;1081;-79
2022/09/30 09:35:08;;;;;;;;;;;;;;;21.14;31.21;97834.66;5035263;28;743;-79
2022/09/30 09:40:56;;;;;;;;;;;;;;;20.99;31.64;97833.44;4978248;28;1010;-79
2022/09/30 09:43:36;;;;;;;;;;;;;;;20.97;31.55;97833.09;4977989;28;759;-79
2022/09/30 09:46:14;;;;;;;;;;;;;;;21.11;31.25;97832.72;4977896;28;1027;-79
2022/09/30 09:48:39;;;;;;;;;;;;;;;21.07;31.13;97832.00;4961930;28;898;-80
2022/09/30 09:51:09;;;;;;;;;;;;;;;20.99;31.30;97833.44;4961760;28;941;-79
2022/09/30 09:53:51;;;;;;;;;;;;;;;21.03;31.38;97842.63;4961736;28;708;-79
2022/09/30 09:56:20;;;;;;;;;;;;;;;21.05;31.24;97831.66;4961890;28;928;-80
2022/09/30 09:59:04;;;;;;;;;;;;;;;20.89;31.59;97840.97;4978319;28;979;-79
2022/09/30 10:01:33;;;;;;;;;;;;;;;21.04;31.26;97830.09;4961878;28;1212;-79
2022/09/30 10:04:22;;;;;;;;;;;;;;;21.05;31.32;97831.66;4962121;28;989;-80
2022/09/30 10:06:48;;;;;;;;;;;;;;;21.11;31.22;97829.09;4977439;28;1922;-79
2022/09/30 10:09:24;;;;;;;;;;;;;;;20.84;31.88;97832.25;4962271;28;901;-80
2022/09/30 10:11:51;;;;;;;;;;;;;;;20.95;31.76;97827.09;4961548;28;880;-80
2022/09/30 10:14:17;;;;;;;;;;;;;;;20.84;31.87;97826.59;4951781;28;1291;-80
2022/09/30 10:16:43;;;;;;;;;;;;;;;21.04;31.62;97835.75;4978761;28;1480;-80
2022/09/30 10:19:19;;;;;;;;;;;;;;;21.03;31.22;97825.63;5016654;28;1328;-79
2022/09/30 10:21:45;;;;;;;;;;;;;;;21.12;31.23;97831.47;5023096;28;1190;-80
2022/09/30 10:24:29;;;;;;;;;;;;;;;20.95;31.71;97827.09;5014921;28;1409;-79
2022/09/30 10:26:54;;;;;;;;;;;;;;;21.04;31.37;97822.38;5034002;28;1977;-80
2022/09/30 10:29:27;;;;;;;;;;;;;;;21.01;31.33;97828.91;5018816;28;708;-80
2022/09/30 10:31:52;;;;;;;;;;;;;;;21.10;31.85;97816.97;5033713;28;1183;-80
2022/09/30 10:34:23;;;;;;;;;;;;;;;21.22;31.96;97813.41;5016117;28;1011;-80
2022/09/30 10:36:48;;;;;;;;;;;;;;;21.24;31.77;97819.41;4983782;28;1032;-80
2022/09/30 10:39:27;;;;;;;;;;;;;;;21.16;31.70;97815.19;5000167;28;1164;-80
2022/09/30 10:42:02;;;;;;;;;;;;;;;21.03;31.93;97817.16;4999976;28;897;-80
2022/09/30 10:44:28;;;;;;;;;;;;;;;21.02;31.97;97815.56;4983753;28;839;-80
2022/09/30 10:46:57;;;;;;;;;;;;;;;21.19;31.80;97808.66;5000197;28;1906;-80
2022/09/30 10:49:26;;;;;;;;;;;;;;;21.22;31.61;97802.06;4983713;28;1131;-80
2022/09/30 10:51:52;;;;;;;;;;;;;;;21.12;31.67;97820.16;5016139;28;823;-80
2022/09/30 10:54:35;;;;;;;;;;;;;;;21.06;31.77;97807.78;5016245;28;817;-80
2022/09/30 10:57:02;;;;;;;;;;;;;;;21.01;31.92;97808.34;5016049;28;766;-80
2022/09/30 10:59:28;;;;;;;;;;;;;;;21.04;31.83;97801.78;4983551;28;780;-80
2022/09/30 11:01:55;;;;;;;;;;;;;;;21.02;31.83;97799.38;5014510;28;1075;-80
2022/09/30 11:04:34;;;;;;;;;;;;;;;21.04;31.79;97801.78;4953807;28;1212;-80
2022/09/30 11:07:18;;;;;;;;;;;;;;;21.25;31.47;97795.53;4992297;28;1989;-79
2022/09/30 11:09:46;;;;;;;;;;;;;;;21.20;31.74;97809.44;4994885;28;1179;-79
2022/09/30 11:12:25;;;;;;;;;;;;;;;20.72;32.51;97792.13;4994624;28;1261;-79
2022/09/30 11:15:10;;;;;;;;;;;;;;;21.03;32.08;97805.84;4995091;28;1243;-80
2022/09/30 11:17:38;;;;;;;;;;;;;;;21.02;32.04;97792.94;4994191;28;1203;-80
2022/09/30 11:20:06;;;;;;;;;;;;;;;20.76;32.62;97795.66;4994507;28;1273;-79
2022/09/30 11:22:36;;;;;;;;;;;;;;;20.93;31.99;97806.91;4994629;28;1241;-79
2022/09/30 11:25:01;;;;;;;;;;;;;;;20.84;32.35;97798.31;4992400;28;1219;-80
2022/09/30 11:27:34;;;;;;;;;;;;;;;21.09;31.92;97792.75;4994074;28;1997;-79
2022/09/30 11:30:03;;;;;;;;;;;;;;;21.01;32.05;97799.84;4994590;28;1254;-79
2022/09/30 11:32:28;;;;;;;;;;;;;;;21.07;31.81;97798.06;4994119;28;1234;-79
2022/09/30 11:35:02;;;;;;;;;;;;;;;20.96;32.02;97811.69;5007151;28;1439;-79
2022/09/30 11:37:33;;;;;;;;;;;;;;;21.09;31.90;97804.06;4986952;28;1203;-79
2022/09/30 11:40:31;;;;;;;;;;;;;;;20.92;32.22;97806.13;4985545;28;1341;-79
2022/09/30 11:43:03;;;;;;;;;;;;;;;21.11;31.77;97818.56;4906987;29;1200;-80
2022/09/30 11:45:34;;;;;;;;;;;;;;;21.07;31.67;97812.19;4894518;29;1354;-79
2022/09/30 11:48:08;;;;;;;;;;;;;;;21.21;31.63;97817.47;4904910;29;1919;-80
2022/09/30 11:50:49;;;;;;;;;;;;;;;21.03;31.88;97819.97;4906933;29;1247;-79
2022/09/30 11:53:17;;;;;;;;;;;;;;;20.88;32.22;97821.59;4907924;29;1264;-80
2022/09/30 11:55:56;;;;;;;;;;;;;;;21.06;31.61;97813.44;4899442;29;792;-80
2022/09/30 11:58:22;;;;;;;;;;;;;;;21.19;31.46;97817.13;4899496;29;1019;-79
2022/09/30 12:00:49;;;;;;;;;;;;;;;21.21;31.31;97823.13;4899283;29;1006;-80
2022/09/30 12:03:18;;;;;;;;;;;;;;;21.15;31.58;97822.09;4899580;29;759;-80
2022/09/30 12:05:53;;;;;;;;;;;;;;;20.99;31.67;97827.78;4899606;29;956;-80
2022/09/30 12:08:21;;;;;;;;;;;;;;;20.91;31.61;97832.03;4916505;29;1915;-80
2022/09/30 12:10:46;;;;;;;;;;;;;;;20.96;31.84;97835.13;4937372;29;878;-80
2022/09/30 12:13:15;;;;;;;;;;;;;;;21.02;31.77;97826.88;4937289;29;913;-80
2022/09/30 12:15:40;;;;;;;;;;;;;;;20.92;31.77;97828.75;4937609;29;1395;-79
2022/09/30 12:18:09;;;;;;;;;;;;;;;21.05;31.64;97826.00;4960061;28;1055;-80
2022/09/30 12:20:36;;;;;;;;;;;;;;;20.98;31.99;97826.19;5012431;28;775;-80
2022/09/30 12:23:09;;;;;;;;;;;;;;;20.76;32.39;97831.63;5012329;28;779;-80
2022/09/30 12:25:42;;;;;;;;;;;;;;;20.92;31.85;97833.63;5012603;28;842;-80
2022/09/30 12:31:13;;;;;;;;;;;;;;;21.25;32.53;97834.34;4997536;28;1193;-80
2022/09/30 12:33:54;;;;;;;;;;;;;;;21.14;32.70;97839.50;4997371;28;759;-80
2022/09/30 12:36:31;;;;;;;;;;;;;;;20.88;32.92;97844.22;5012427;28;832;-80
2022/09/30 12:39:04;;;;;;;;;;;;;;;21.04;32.61;97844.22;4997394;28;699;-80
2022/09/30 12:41:32;;;;;;;;;;;;;;;21.02;32.57;97849.50;5012520;28;919;-80
2022/09/30 12:44:00;;;;;;;;;;;;;;;21.01;32.72;97842.28;4997380;28;699;-79
2022/09/30 12:46:26;;;;;;;;;;;;;;;21.12;32.16;97847.66;5012450;28;1972;-79
2022/09/30 12:48:56;;;;;;;;;;;;;;;20.93;32.51;97852.97;5012615;28;742;-79
2022/09/30 12:51:26;;;;;;;;;;;;;;;21.05;32.14;97837.31;4994620;28;809;-79
2022/09/30 12:53:55;;;;;;;;;;;;;;;21.05;32.44;97848.63;4979543;28;1243;-79
2022/09/30 12:56:20;;;;;;;;;;;;;;;21.06;32.07;97838.91;4980904;28;1503;-79
2022/09/30 12:58:49;;;;;;;;;;;;;;;21.13;32.18;97844.34;5013262;28;1281;-79
2022/09/30 13:01:15;;;;;;;;;;;;;;;20.98;32.44;97848.81;5013410;28;1238;-79
2022/09/30 13:03:45;;;;;;;;;;;;;;;21.00;32.11;97840.69;4991406;28;1538;-79
2022/09/30 13:06:12;;;;;;;;;;;;;;;21.00;32.25;97846.34;5014385;28;1189;-79
2022/09/30 13:08:42;;;;;;;;;;;;;;;21.05;32.18;97846.59;5012969;28;1926;-80
2022/09/30 13:11:25;;;;;;;;;;;;;;;21.26;31.58;97852.91;4996464;28;1354;-79
2022/09/30 13:14:10;;;;;;;;;;;;;;;20.87;32.24;97853.97;5015551;28;1407;-79
2022/09/30 13:16:55;;;;;;;;;;;;;;;21.12;31.82;97850.47;5017715;28;856;-79
2022/09/30 13:19:22;;;;;;;;;;;;;;;21.12;31.65;97854.09;5018029;28;1008;-79
2022/09/30 13:21:48;;;;;;;;;;;;;;;21.17;31.39;97861.25;5001334;28;762;-79
2022/09/30 13:24:14;;;;;;;;;;;;;;;21.08;31.60;97861.88;5017940;28;846;-79
2022/09/30 13:26:40;;;;;;;;;;;;;;;20.99;32.18;97859.69;4978393;28;1898;-79
2022/09/30 13:29:18;;;;;;;;;;;;;;;20.89;32.15;97857.16;4988089;28;997;-79
2022/09/30 13:31:44;;;;;;;;;;;;;;;20.93;31.94;97863.50;4998052;28;1194;-79
2022/09/30 13:34:10;;;;;;;;;;;;;;;20.80;31.99;97852.91;4997958;28;1038;-79
2022/09/30 13:36:50;;;;;;;;;;;;;;;20.97;31.77;97852.88;4997647;28;874;-79
2022/09/30 13:39:18;;;;;;;;;;;;;;;21.02;31.67;97855.16;4997796;28;806;-79
2022/09/30 13:41:45;;;;;;;;;;;;;;;21.00;31.90;97852.00;4997438;28;1245;-79
2022/09/30 13:44:15;;;;;;;;;;;;;;;20.98;32.04;97848.81;4985522;28;1305;-79
2022/09/30 13:46:42;;;;;;;;;;;;;;;20.64;32.32;97847.25;4986957;28;1894;-79